createdAt,value
2022-11-21T00:01:27.600Z,36.30
2022-11-21T00:03:54.745Z,35.00
2022-11-21T00:06:23.867Z,33.97
2022-11-21T00:08:50.934Z,36.07
2022-11-21T00:11:17.967Z,31.53
2022-11-21T00:13:45.385Z,31.57
2022-11-21T00:16:15.084Z,35.07
2022-11-21T00:18:42.506Z,35.57
2022-11-21T00:21:18.228Z,36.00
2022-11-21T00:23:46.269Z,33.53
2022-11-21T00:26:14.748Z,39.30
2022-11-21T00:28:42.135Z,36.50
2022-11-21T00:31:10.230Z,39.00
2022-11-21T00:33:39.325Z,35.90
2022-11-21T00:36:13.083Z,33.23
2022-11-21T00:38:40.033Z,35.27
2022-11-21T00:41:07.109Z,34.03
2022-11-21T00:43:34.228Z,35.87
2022-11-21T00:46:03.238Z,32.87
2022-11-21T00:48:34.682Z,41.50
2022-11-21T00:51:02.201Z,37.70
2022-11-21T00:53:29.720Z,40.30
2022-11-21T00:55:56.851Z,41.00
2022-11-21T00:58:23.821Z,36.90
2022-11-21T01:00:51.125Z,39.40
2022-11-21T01:03:18.449Z,32.93
2022-11-21T01:05:45.556Z,38.87
2022-11-21T01:08:12.411Z,35.83
2022-11-21T01:10:39.392Z,35.50
2022-11-21T01:13:06.481Z,35.17
2022-11-21T01:15:34.807Z,37.47
2022-11-21T01:18:02.837Z,34.90
2022-11-21T01:20:29.855Z,40.70
2022-11-21T01:22:56.912Z,34.33
2022-11-21T01:25:24.009Z,37.30
2022-11-21T01:27:51.210Z,38.27
2022-11-21T01:30:18.785Z,36.30
2022-11-21T01:32:50.107Z,37.60
2022-11-21T01:35:18.112Z,39.63
2022-11-21T01:37:48.609Z,35.57
2022-11-21T01:40:16.557Z,38.57
2022-11-21T01:43:02.716Z,40.23
2022-11-21T01:45:51.339Z,36.67
2022-11-21T01:48:18.800Z,37.53
2022-11-21T01:50:46.283Z,41.40
2022-11-21T01:53:13.432Z,38.00
2022-11-21T01:55:40.421Z,35.47
2022-11-21T01:58:07.478Z,41.40
2022-11-21T02:00:39.934Z,42.10
2022-11-21T02:03:12.634Z,42.93
2022-11-21T02:05:40.657Z,44.50
2022-11-21T02:08:15.197Z,43.87
2022-11-21T02:10:50.235Z,46.47
2022-11-21T02:13:17.467Z,40.73
2022-11-21T02:15:44.685Z,80.87
2022-11-21T02:18:11.817Z,44.90
2022-11-21T02:20:41.375Z,44.57
2022-11-21T02:23:41.944Z,46.93
2022-11-21T02:26:09.276Z,43.67
2022-11-21T02:28:39.473Z,43.67
2022-11-21T02:31:07.000Z,45.83
2022-11-21T02:33:34.255Z,48.63
2022-11-21T02:36:02.781Z,46.53
2022-11-21T02:38:37.922Z,51.47
2022-11-21T02:41:17.319Z,51.83
2022-11-21T02:43:54.797Z,43.33
2022-11-21T02:46:21.866Z,51.10
2022-11-21T02:48:49.043Z,48.40
2022-11-21T02:51:15.977Z,47.60
2022-11-21T02:53:43.125Z,53.17
2022-11-21T02:56:10.074Z,50.30
2022-11-21T02:58:37.085Z,52.17
2022-11-21T03:01:04.008Z,48.93
2022-11-21T03:03:31.196Z,54.10
2022-11-21T03:05:58.043Z,50.90
2022-11-21T03:08:25.024Z,55.67
2022-11-21T03:10:52.025Z,53.23
2022-11-21T03:13:19.034Z,52.30
2022-11-21T03:15:45.953Z,56.80
2022-11-21T03:18:12.826Z,57.80
2022-11-21T03:20:39.813Z,57.20
2022-11-21T03:23:06.785Z,56.67
2022-11-21T03:25:33.781Z,56.83
2022-11-21T03:28:00.782Z,55.03
2022-11-21T03:30:28.144Z,51.83
2022-11-21T03:33:00.889Z,56.73
2022-11-21T03:35:27.919Z,55.47
2022-11-21T03:37:57.336Z,51.90
2022-11-21T03:40:24.833Z,60.10
2022-11-21T03:42:51.753Z,59.17
2022-11-21T03:45:18.684Z,58.00
2022-11-21T03:47:45.634Z,63.50
2022-11-21T03:50:15.400Z,64.83
2022-11-21T03:52:42.295Z,59.37
2022-11-21T03:55:09.603Z,59.53
2022-11-21T03:57:36.552Z,58.63
2022-11-21T04:00:03.906Z,65.23
2022-11-21T04:02:30.843Z,59.73
2022-11-21T04:04:57.708Z,52.50
2022-11-21T04:07:28.758Z,56.33
2022-11-21T04:09:57.027Z,57.33
2022-11-21T04:12:24.102Z,53.03
2022-11-21T04:14:51.208Z,57.47
2022-11-21T04:17:21.068Z,61.03
2022-11-21T04:19:49.891Z,64.10
2022-11-21T04:22:16.888Z,60.50
2022-11-21T04:24:44.976Z,64.80
2022-11-21T04:27:11.943Z,63.90
2022-11-21T04:29:43.598Z,61.70
2022-11-21T04:32:13.552Z,68.53
2022-11-21T04:34:41.231Z,64.50
2022-11-21T04:37:11.594Z,60.13
2022-11-21T04:39:45.155Z,65.57
2022-11-21T04:42:12.430Z,60.13
2022-11-21T04:44:39.384Z,60.57
2022-11-21T04:47:09.323Z,60.80
2022-11-21T04:49:40.326Z,56.93
2022-11-21T04:52:08.847Z,63.00
2022-11-21T04:54:35.698Z,56.43
2022-11-21T04:57:05.474Z,55.43
2022-11-21T04:59:32.970Z,64.43
2022-11-21T05:01:59.839Z,61.67
2022-11-21T05:04:27.746Z,56.43
2022-11-21T05:06:57.639Z,63.63
2022-11-21T05:09:24.553Z,67.33
2022-11-21T05:12:10.023Z,66.70
2022-11-21T05:14:39.000Z,72.63
2022-11-21T05:17:06.023Z,72.80
2022-11-21T05:19:33.235Z,73.60
2022-11-21T05:22:00.197Z,64.60
2022-11-21T05:24:27.517Z,68.57
2022-11-21T05:26:55.357Z,65.00
2022-11-21T05:29:27.739Z,59.37
2022-11-21T05:31:57.398Z,59.63
2022-11-21T05:34:24.364Z,61.77
2022-11-21T05:36:57.376Z,57.50
2022-11-21T05:39:24.784Z,57.10
2022-11-21T05:41:51.745Z,66.77
2022-11-21T05:44:19.301Z,63.03
2022-11-21T05:46:46.649Z,63.13
2022-11-21T05:49:13.767Z,60.27
2022-11-21T05:51:40.869Z,60.20
2022-11-21T05:54:07.838Z,63.57
2022-11-21T05:56:35.195Z,64.37
2022-11-21T05:59:02.190Z,61.63
2022-11-21T06:01:47.334Z,57.40
2022-11-21T06:04:14.347Z,64.33
2022-11-21T06:06:42.365Z,63.17
2022-11-21T06:09:09.387Z,58.03
2022-11-21T06:11:36.320Z,67.00
2022-11-21T06:14:03.402Z,59.70
2022-11-21T06:16:30.629Z,57.60
2022-11-21T06:18:58.833Z,59.87
2022-11-21T06:21:28.927Z,53.93
2022-11-21T06:23:57.906Z,58.80
2022-11-21T06:26:26.919Z,58.63
2022-11-21T06:28:54.999Z,62.80
2022-11-21T06:31:25.130Z,61.43
2022-11-21T06:33:54.478Z,52.30
2022-11-21T06:36:21.582Z,63.87
2022-11-21T06:39:01.917Z,56.03
2022-11-21T06:41:31.032Z,58.23
2022-11-21T06:44:03.430Z,54.13
2022-11-21T06:46:30.682Z,63.33
2022-11-21T06:48:57.843Z,59.23
2022-11-21T06:51:26.185Z,61.87
2022-11-21T06:53:59.146Z,60.03
2022-11-21T06:56:28.035Z,58.23
2022-11-21T07:02:32.126Z,58.03
2022-11-21T07:05:01.465Z,56.63
2022-11-21T07:07:28.511Z,55.70
2022-11-21T07:09:55.534Z,53.63
2022-11-21T07:12:41.142Z,57.27
2022-11-21T07:15:09.075Z,55.90
2022-11-21T07:17:36.150Z,62.07
2022-11-21T07:20:03.268Z,68.77
2022-11-21T07:23:18.085Z,57.53
2022-11-21T07:25:45.162Z,56.93
2022-11-21T07:28:12.310Z,64.40
2022-11-21T07:30:39.873Z,65.50
2022-11-21T07:33:07.798Z,56.50
2022-11-21T07:35:35.886Z,60.10
2022-11-21T07:38:04.559Z,66.20
2022-11-21T07:40:34.830Z,67.33
2022-11-21T07:43:09.559Z,59.70
2022-11-21T07:45:38.324Z,58.53
2022-11-21T07:48:07.799Z,59.90
2022-11-21T07:50:35.102Z,59.57
2022-11-21T07:53:06.650Z,60.03
2022-11-21T07:55:39.080Z,60.20
2022-11-21T07:58:11.755Z,57.90
2022-11-21T08:00:40.876Z,58.10
2022-11-21T08:03:08.038Z,57.57
2022-11-21T08:05:52.975Z,61.27
2022-11-21T08:08:20.013Z,51.00
2022-11-21T08:10:47.133Z,52.77
2022-11-21T08:13:14.658Z,55.53
2022-11-21T08:15:41.831Z,49.20
2022-11-21T08:18:13.616Z,55.80
2022-11-21T08:20:41.141Z,54.37
2022-11-21T08:23:08.180Z,52.60
2022-11-21T08:25:36.868Z,52.23
2022-11-21T08:28:04.855Z,56.37
2022-11-21T08:30:33.097Z,51.33
2022-11-21T08:33:01.320Z,51.93
2022-11-21T08:35:31.358Z,47.60
2022-11-21T08:38:00.049Z,49.80
2022-11-21T08:40:28.628Z,54.60
2022-11-21T08:43:02.533Z,51.63
2022-11-21T08:45:29.993Z,49.30
2022-11-21T08:47:57.251Z,42.53
2022-11-21T08:50:24.895Z,45.97
2022-11-21T08:52:52.272Z,48.17
2022-11-21T08:55:19.519Z,48.33
2022-11-21T08:57:46.461Z,40.77
2022-11-21T09:00:14.546Z,43.93
2022-11-21T09:02:41.794Z,50.20
2022-11-21T09:05:09.757Z,45.47
2022-11-21T09:07:37.230Z,44.70
2022-11-21T09:10:04.976Z,42.90
2022-11-21T09:12:33.078Z,45.97
2022-11-21T09:15:18.757Z,44.73
2022-11-21T09:18:04.184Z,45.20
2022-11-21T09:20:33.002Z,144.00
2022-11-21T09:23:08.313Z,48.50
2022-11-21T09:25:35.548Z,47.57
2022-11-21T09:28:03.522Z,49.67
2022-11-21T09:30:31.864Z,48.47
2022-11-21T09:33:03.369Z,52.33
2022-11-21T09:35:30.998Z,44.73
2022-11-21T09:37:58.442Z,40.30
2022-11-21T09:40:26.203Z,39.27
2022-11-21T09:43:50.639Z,40.53
2022-11-21T09:46:24.833Z,40.73
2022-11-21T09:49:02.540Z,37.57
2022-11-21T09:51:31.591Z,39.70
2022-11-21T09:54:01.787Z,42.83
2022-11-21T09:56:36.151Z,38.17
2022-11-21T09:59:27.871Z,44.20
2022-11-21T10:01:55.001Z,39.00
2022-11-21T10:04:21.995Z,40.47
2022-11-21T10:07:22.302Z,37.63
2022-11-21T10:10:17.486Z,41.23
2022-11-21T10:13:25.823Z,37.07
2022-11-21T10:15:58.461Z,35.73
2022-11-21T10:19:07.276Z,36.67
2022-11-21T10:22:13.086Z,36.23
2022-11-21T10:25:01.735Z,38.47
2022-11-21T10:28:15.476Z,35.50
2022-11-21T10:30:47.332Z,34.97
2022-11-21T10:33:44.419Z,33.80
2022-11-21T10:36:23.535Z,33.83
2022-11-21T10:38:52.486Z,41.13
2022-11-21T10:41:25.792Z,38.73
2022-11-21T10:44:20.137Z,39.70
2022-11-21T10:47:01.051Z,34.67
2022-11-21T10:49:32.738Z,38.07
2022-11-21T10:52:15.502Z,35.20
2022-11-21T10:55:09.015Z,38.53
2022-11-21T10:57:47.759Z,39.03
2022-11-21T11:00:26.878Z,38.77
2022-11-21T11:03:16.807Z,37.20
2022-11-21T11:05:56.273Z,36.63
2022-11-21T11:08:23.318Z,33.90
2022-11-21T11:11:15.324Z,38.63
2022-11-21T11:14:02.734Z,40.47
2022-11-21T11:16:31.588Z,41.03
2022-11-21T11:19:01.641Z,42.70
2022-11-21T11:21:46.358Z,41.63
2022-11-21T11:24:26.970Z,35.20
2022-11-21T11:27:00.980Z,35.17
2022-11-21T11:29:30.872Z,37.10
2022-11-21T11:32:21.919Z,39.13
2022-11-21T11:35:13.386Z,41.73
2022-11-21T11:38:04.864Z,39.77
2022-11-21T11:40:42.210Z,47.83
2022-11-21T11:44:08.057Z,39.23
2022-11-21T11:47:27.480Z,46.93
2022-11-21T11:50:13.091Z,43.10
2022-11-21T11:53:26.468Z,44.87
2022-11-21T11:55:59.366Z,41.63
2022-11-21T11:58:56.074Z,41.00
2022-11-21T12:02:12.095Z,42.13
2022-11-21T12:04:48.799Z,41.40
2022-11-21T12:10:25.064Z,44.33
2022-11-21T12:13:11.905Z,44.87
2022-11-21T12:15:49.781Z,43.80
2022-11-21T12:18:43.075Z,43.90
2022-11-21T12:21:17.147Z,40.10
2022-11-21T12:23:55.471Z,42.20
2022-11-21T12:27:00.985Z,42.73
2022-11-21T12:30:09.417Z,43.43
2022-11-21T12:33:10.914Z,36.00
2022-11-21T12:36:18.707Z,35.63
2022-11-21T12:39:04.470Z,35.20
2022-11-21T12:41:57.952Z,37.10
2022-11-21T12:45:02.588Z,30.97
2022-11-21T12:48:47.172Z,35.10
2022-11-21T12:52:05.368Z,34.87
2022-11-21T12:55:10.768Z,32.90
2022-11-21T12:58:08.640Z,35.00
2022-11-21T13:01:21.690Z,32.77
2022-11-21T13:04:05.811Z,34.27
2022-11-21T13:06:39.945Z,34.70
2022-11-21T13:09:12.430Z,29.73
2022-11-21T13:12:04.085Z,33.10
2022-11-21T13:15:12.275Z,34.70
2022-11-21T13:17:54.281Z,38.87
2022-11-21T13:20:46.204Z,33.57
2022-11-21T13:23:40.378Z,33.57
2022-11-21T13:26:48.399Z,35.07
2022-11-21T13:29:18.435Z,41.53
2022-11-21T13:31:45.914Z,32.70
2022-11-21T13:34:37.167Z,34.77
2022-11-21T13:37:05.788Z,37.30
2022-11-21T13:39:34.849Z,34.97
2022-11-21T13:42:25.515Z,32.67
2022-11-21T13:44:54.772Z,36.13
2022-11-21T13:47:56.809Z,32.27
2022-11-21T13:50:41.311Z,30.73
2022-11-21T13:53:32.039Z,41.40
2022-11-21T13:56:32.095Z,32.77
2022-11-21T13:59:17.335Z,31.73
2022-11-21T14:02:01.930Z,36.93
2022-11-21T14:04:43.462Z,34.10
2022-11-21T14:07:34.995Z,35.50
2022-11-21T14:10:19.807Z,34.40
2022-11-21T14:12:49.662Z,36.30
2022-11-21T14:15:41.361Z,34.87
2022-11-21T14:18:22.892Z,28.00
2022-11-21T14:20:56.913Z,33.10
2022-11-21T14:23:30.201Z,34.30
2022-11-21T14:26:12.731Z,33.57
2022-11-21T14:28:39.871Z,36.00
2022-11-21T14:31:09.561Z,33.77
2022-11-21T14:33:44.722Z,36.20
2022-11-21T14:36:30.765Z,31.23
2022-11-21T14:41:59.603Z,39.70
2022-11-21T14:44:27.183Z,34.43
2022-11-21T14:47:25.118Z,36.17
2022-11-21T14:49:55.516Z,37.20
2022-11-21T14:52:29.119Z,32.90
2022-11-21T14:57:48.340Z,34.23
2022-11-21T15:03:21.924Z,36.43
2022-11-21T15:06:07.982Z,36.07
2022-11-21T15:11:56.644Z,39.70
2022-11-21T15:14:42.719Z,43.70
2022-11-21T15:17:15.117Z,41.47
2022-11-21T15:19:43.590Z,49.70
2022-11-21T15:22:28.347Z,51.87
2022-11-21T15:25:24.710Z,48.40
2022-11-21T15:28:02.489Z,39.57
2022-11-21T15:30:34.287Z,39.97
2022-11-21T15:33:19.898Z,45.93
2022-11-21T15:35:55.431Z,43.13
2022-11-21T15:38:49.505Z,48.10
2022-11-21T15:41:28.481Z,49.30
2022-11-21T15:44:03.296Z,43.77
2022-11-21T15:46:31.753Z,46.70
2022-11-21T15:49:31.529Z,48.23
2022-11-21T15:52:09.820Z,42.30
2022-11-21T15:54:48.990Z,44.80
2022-11-21T15:57:17.458Z,51.07
2022-11-21T15:59:45.512Z,50.47
2022-11-21T16:02:15.913Z,55.53
2022-11-21T16:04:42.979Z,47.80
2022-11-21T16:07:10.009Z,51.40
2022-11-21T16:09:37.915Z,50.03
2022-11-21T16:12:05.141Z,52.33
2022-11-21T16:14:32.473Z,49.50
2022-11-21T16:16:59.536Z,53.53
2022-11-21T16:19:27.019Z,50.60
2022-11-21T16:21:54.262Z,50.60
2022-11-21T16:24:21.208Z,49.33
2022-11-21T16:26:49.579Z,48.83
2022-11-21T16:29:16.677Z,52.70
2022-11-21T16:31:43.963Z,57.20
2022-11-21T16:34:11.062Z,43.83
2022-11-21T16:36:38.257Z,45.00
2022-11-21T16:39:10.100Z,48.07
2022-11-21T16:41:39.510Z,46.80
2022-11-21T16:44:13.895Z,49.57
2022-11-21T16:46:47.406Z,42.53
2022-11-21T16:49:14.729Z,46.90
2022-11-21T16:51:41.987Z,44.83
2022-11-21T16:54:09.654Z,42.00
2022-11-21T16:56:36.865Z,39.07
2022-11-21T16:59:03.897Z,36.30
2022-11-21T17:01:31.181Z,35.80
2022-11-21T17:03:58.318Z,33.43
2022-11-21T17:06:28.482Z,34.40
2022-11-21T17:08:55.606Z,33.13
2022-11-21T17:11:26.558Z,31.77
2022-11-21T17:13:53.570Z,35.83
2022-11-21T17:16:22.486Z,32.87
2022-11-21T17:18:57.104Z,39.03
2022-11-21T17:21:24.778Z,31.20
2022-11-21T17:23:52.575Z,35.07
2022-11-21T17:26:22.272Z,32.63
2022-11-21T17:29:00.615Z,29.27
2022-11-21T17:31:28.461Z,37.63
2022-11-21T17:34:01.129Z,35.43
2022-11-21T17:36:29.850Z,28.73
2022-11-21T17:38:57.249Z,29.57
2022-11-21T17:41:25.492Z,32.57
2022-11-21T17:43:57.112Z,25.43
2022-11-21T17:46:28.474Z,31.13
2022-11-21T17:48:59.026Z,29.60
2022-11-21T17:51:33.521Z,30.50
2022-11-21T17:54:02.310Z,25.50
2022-11-21T17:56:31.894Z,25.70
2022-11-21T17:58:59.063Z,24.13
2022-11-21T18:01:26.420Z,24.07
2022-11-21T18:03:57.213Z,24.83
2022-11-21T18:06:26.355Z,30.90
2022-11-21T18:08:53.406Z,30.40
2022-11-21T18:11:22.278Z,21.57
2022-11-21T18:13:50.605Z,24.73
2022-11-21T18:16:20.090Z,23.73
2022-11-21T18:18:49.577Z,22.20
2022-11-21T18:21:21.217Z,23.17
2022-11-21T18:23:48.959Z,21.67
2022-11-21T18:26:24.676Z,18.23
2022-11-21T18:29:13.449Z,18.53
2022-11-21T18:31:45.897Z,23.07
2022-11-21T18:34:13.429Z,17.67
2022-11-21T18:36:40.866Z,23.67
2022-11-21T18:39:14.239Z,28.03
2022-11-21T18:41:43.034Z,17.23
2022-11-21T18:44:10.524Z,21.63
2022-11-21T18:46:38.540Z,22.00
2022-11-21T18:49:07.446Z,18.00
2022-11-21T18:51:37.261Z,16.17
2022-11-21T18:54:11.270Z,17.30
2022-11-21T18:56:39.678Z,18.33
2022-11-21T18:59:07.388Z,17.73
2022-11-21T19:01:36.028Z,19.43
2022-11-21T19:04:03.665Z,29.43
2022-11-21T19:06:31.040Z,20.17
2022-11-21T19:08:58.853Z,18.90
2022-11-21T19:11:28.014Z,15.80
2022-11-21T19:13:58.092Z,20.73
2022-11-21T19:16:27.354Z,20.07
2022-11-21T19:21:42.814Z,15.40
2022-11-21T19:24:14.577Z,15.50
2022-11-21T19:26:42.434Z,16.97
2022-11-21T19:29:10.547Z,13.33
2022-11-21T19:31:45.227Z,14.10
2022-11-21T19:34:14.955Z,14.93
2022-11-21T19:36:42.736Z,15.53
2022-11-21T19:39:10.216Z,21.27
2022-11-21T19:41:37.519Z,15.37
2022-11-21T19:44:04.786Z,21.57
2022-11-21T19:46:37.327Z,13.10
2022-11-21T19:49:05.827Z,17.63
2022-11-21T19:51:38.439Z,17.43
2022-11-21T19:54:07.284Z,14.13
2022-11-21T19:56:34.797Z,13.50
2022-11-21T19:59:02.322Z,13.67
2022-11-21T20:01:31.516Z,12.93
2022-11-21T20:04:02.058Z,13.80
2022-11-21T20:06:33.699Z,16.90
2022-11-21T20:09:12.301Z,14.90
2022-11-21T20:11:41.941Z,13.50
2022-11-21T20:14:09.058Z,13.87
2022-11-21T20:16:42.381Z,12.23
2022-11-21T20:19:15.689Z,12.80
2022-11-21T20:21:44.215Z,12.40
2022-11-21T20:24:13.423Z,12.73
2022-11-21T20:26:40.786Z,12.83
2022-11-21T20:29:08.652Z,14.53
2022-11-21T20:31:37.729Z,11.53
2022-11-21T20:34:07.519Z,12.70
2022-11-21T20:36:37.392Z,11.40
2022-11-21T20:39:13.246Z,12.10
2022-11-21T20:41:42.368Z,12.70
2022-11-21T20:44:57.053Z,12.40
2022-11-21T20:47:02.777Z,16.77
2022-11-21T20:49:30.185Z,11.90
2022-11-21T20:54:44.578Z,10.70
2022-11-21T20:57:15.171Z,11.03
2022-11-21T20:59:43.317Z,13.00
2022-11-21T21:02:14.477Z,11.80
2022-11-21T21:04:42.275Z,12.30
2022-11-21T21:07:09.489Z,12.03
2022-11-21T21:09:37.292Z,11.40
2022-11-21T21:12:05.753Z,11.90
2022-11-21T21:14:35.718Z,12.93
2022-11-21T21:17:02.888Z,12.80
2022-11-21T21:19:30.671Z,11.53
2022-11-21T21:21:57.922Z,12.53
2022-11-21T21:24:25.028Z,13.03
2022-11-21T21:26:52.354Z,13.37
2022-11-21T21:29:22.781Z,13.70
2022-11-21T21:31:51.908Z,12.87
2022-11-21T21:34:20.893Z,15.87
2022-11-21T21:36:48.431Z,20.50
2022-11-21T21:39:15.514Z,19.90
2022-11-21T21:41:47.738Z,17.30
2022-11-21T21:44:15.770Z,17.37
2022-11-21T21:46:43.196Z,16.53
2022-11-21T21:49:10.239Z,15.07
2022-11-21T21:51:38.188Z,13.27
2022-11-21T21:54:05.489Z,18.00
2022-11-21T21:56:33.735Z,17.97
2022-11-21T21:59:00.658Z,17.40
2022-11-21T22:01:30.497Z,19.33
2022-11-21T22:04:00.159Z,18.57
2022-11-21T22:06:27.862Z,13.67
2022-11-21T22:08:55.791Z,14.13
2022-11-21T22:11:25.512Z,11.33
2022-11-21T22:13:58.129Z,13.20
2022-11-21T22:16:26.478Z,10.43
2022-11-21T22:18:53.793Z,10.17
2022-11-21T22:21:28.991Z,10.87
2022-11-21T22:26:46.959Z,9.53
2022-11-21T22:29:14.005Z,9.23
2022-11-21T22:31:41.517Z,8.50
2022-11-21T22:34:13.168Z,9.77
2022-11-21T22:36:41.008Z,7.97
2022-11-21T22:39:08.050Z,7.00
2022-11-21T22:41:35.209Z,8.33
2022-11-21T22:44:02.140Z,9.50
2022-11-21T22:46:30.192Z,9.23
2022-11-21T22:48:58.011Z,8.73
2022-11-21T22:51:29.808Z,8.30
2022-11-21T22:53:57.123Z,9.30
2022-11-21T22:56:25.190Z,10.70
2022-11-21T22:58:52.339Z,9.10
2022-11-21T23:01:21.408Z,8.60
2022-11-21T23:03:49.350Z,7.63
2022-11-21T23:06:21.759Z,7.70
2022-11-21T23:08:49.239Z,8.97
2022-11-21T23:11:19.217Z,9.80
2022-11-21T23:13:47.593Z,8.13
2022-11-21T23:16:15.710Z,9.10
2022-11-21T23:18:43.079Z,9.57
2022-11-21T23:21:11.231Z,10.77
2022-11-21T23:23:38.261Z,9.37
2022-11-21T23:26:05.977Z,10.93
2022-11-21T23:28:33.301Z,9.63
2022-11-21T23:31:03.216Z,9.10
2022-11-21T23:33:32.775Z,8.83
2022-11-21T23:35:59.742Z,8.20
2022-11-21T23:38:26.790Z,8.30
2022-11-21T23:40:53.731Z,8.97
2022-11-21T23:43:20.642Z,9.83
2022-11-21T23:45:51.978Z,8.20
2022-11-21T23:48:19.889Z,7.47
2022-11-21T23:50:47.605Z,8.13
2022-11-21T23:53:14.723Z,7.60
2022-11-21T23:55:43.435Z,7.47
2022-11-21T23:58:12.936Z,8.07
